Time;durP1;ratioP1;P1;durP2;ratioP2;P2;SDS_P1;SDS_P2;PMS_P1;PMS_P2;Temp;Humidity;BMP_temperature;BMP_pressure;BME280_temperature;BME280_humidity;BME280_pressure;Samples;Min_cycle;Max_cycle;Signal;HPM_P1;HPM_P2
2022/08/28 00:00:14;;;;;;;5.47;5.07;;;23.50;80.20;;;;;;5030910;28;20280;-70
2022/08/28 00:02:40;;;;;;;5.30;4.90;;;23.40;80.10;;;;;;5032535;28;20167;-70
2022/08/28 00:05:09;;;;;;;5.43;5.03;;;23.50;80.20;;;;;;5031600;28;20221;-71
2022/08/28 00:07:36;;;;;;;5.70;5.20;;;23.50;80.10;;;;;;5031701;28;20237;-71
2022/08/28 00:10:03;;;;;;;5.53;5.13;;;23.50;80.10;;;;;;5030794;28;20214;-70
2022/08/28 00:12:30;;;;;;;4.93;4.53;;;23.50;80.10;;;;;;5031350;28;20215;-71
2022/08/28 00:14:56;;;;;;;5.35;4.95;;;23.50;80.10;;;;;;5031327;28;20248;-71
2022/08/28 00:17:22;;;;;;;4.85;4.55;;;23.50;80.00;;;;;;5030609;28;20195;-70
2022/08/28 00:19:47;;;;;;;4.63;4.32;;;23.50;80.00;;;;;;5030751;28;20632;-70
2022/08/28 00:22:14;;;;;;;5.65;4.75;;;23.40;80.00;;;;;;5031341;28;20294;-71
2022/08/28 00:24:41;;;;;;;5.30;4.90;;;23.40;80.00;;;;;;5032241;28;20218;-71
2022/08/28 00:29:51;;;;;;;5.60;5.13;;;23.40;80.00;;;;;;5030949;28;20199;-70
2022/08/28 00:32:17;;;;;;;5.10;4.70;;;23.40;80.00;;;;;;5031075;28;20210;-71
2022/08/28 00:34:43;;;;;;;5.10;4.70;;;23.40;80.00;;;;;;5047786;28;20186;-70
2022/08/28 00:37:09;;;;;;;5.30;4.90;;;23.40;80.00;;;;;;5031040;28;20701;-70
2022/08/28 00:39:34;;;;;;;5.10;4.70;;;23.40;80.00;;;;;;5047430;28;20249;-70
2022/08/28 00:42:00;;;;;;;4.70;4.40;;;23.40;80.10;;;;;;5031606;28;20229;-71
2022/08/28 00:44:28;;;;;;;5.03;4.65;;;23.40;80.80;;;;;;5030867;28;20230;-71
2022/08/28 00:46:57;;;;;;;5.38;4.88;;;23.40;80.10;;;;;;5030909;28;20670;-71
2022/08/28 00:49:28;;;;;;;4.60;4.30;;;23.40;80.10;;;;;;5013997;28;20214;-70
2022/08/28 00:52:07;;;;;;;4.70;4.40;;;23.40;80.10;;;;;;5030512;28;20628;-71
2022/08/28 00:54:47;;;;;;;5.13;4.72;;;23.40;80.10;;;;;;5030850;28;20262;-71
2022/08/28 00:57:20;;;;;;;5.05;4.65;;;23.50;80.30;;;;;;5014261;28;20179;-71
2022/08/28 00:59:46;;;;;;;4.47;4.15;;;23.40;80.10;;;;;;5030169;28;20203;-71
2022/08/28 01:02:12;;;;;;;4.70;4.40;;;23.40;80.20;;;;;;5030788;28;20192;-71
2022/08/28 01:04:38;;;;;;;4.88;4.57;;;23.40;80.10;;;;;;5014108;28;20298;-71
2022/08/28 01:07:09;;;;;;;4.38;4.07;;;23.40;80.20;;;;;;5014618;28;20274;-71
2022/08/28 01:09:42;;;;;;;4.70;4.40;;;23.40;80.30;;;;;;5014423;28;20257;-71
2022/08/28 01:12:18;;;;;;;4.90;4.50;;;23.50;80.40;;;;;;5030819;28;20187;-71
2022/08/28 01:14:46;;;;;;;4.53;4.22;;;23.40;80.30;;;;;;5031944;28;20167;-71
2022/08/28 01:17:15;;;;;;;4.72;4.43;;;23.40;80.40;;;;;;5030757;28;20215;-71
2022/08/28 01:19:55;;;;;;;4.57;4.25;;;23.40;80.30;;;;;;5030381;28;20235;-71
2022/08/28 01:22:49;;;;;;;4.57;4.28;;;23.40;80.40;;;;;;5031297;28;20194;-71
2022/08/28 01:25:23;;;;;;;4.47;4.18;;;23.50;80.60;;;;;;5030746;28;20321;-71
2022/08/28 01:27:50;;;;;;;4.95;4.55;;;23.40;80.50;;;;;;5031850;28;20168;-71
2022/08/28 01:30:20;;;;;;;5.05;4.65;;;23.40;80.50;;;;;;5034795;28;20207;-70
2022/08/28 01:32:52;;;;;;;5.00;4.60;;;23.40;80.50;;;;;;5017631;28;20214;-71
2022/08/28 01:35:46;;;;;;;4.78;4.45;;;23.40;80.50;;;;;;5034214;28;20229;-70
2022/08/28 01:38:14;;;;;;;4.35;4.05;;;23.40;80.50;;;;;;5032095;28;20207;-71
2022/08/28 01:40:45;;;;;;;4.53;4.13;;;23.40;80.50;;;;;;5034632;28;20198;-70
2022/08/28 01:43:19;;;;;;;4.57;4.20;;;23.40;80.50;;;;;;5033968;28;20279;-71
2022/08/28 01:45:53;;;;;;;4.65;4.25;;;23.40;80.50;;;;;;5034322;28;20643;-71
2022/08/28 01:48:24;;;;;;;4.10;3.80;;;23.40;80.50;;;;;;5031007;28;20176;-71
2022/08/28 01:50:51;;;;;;;4.30;4.00;;;23.40;80.50;;;;;;5033236;28;20610;-70
2022/08/28 01:53:22;;;;;;;4.85;4.45;;;23.40;80.50;;;;;;5017702;28;20176;-71
2022/08/28 01:55:48;;;;;;;4.35;4.05;;;23.40;80.50;;;;;;5033633;28;20176;-71
2022/08/28 01:58:15;;;;;;;4.50;4.20;;;23.40;80.50;;;;;;5033999;28;20198;-71
2022/08/28 02:00:41;;;;;;;4.53;4.18;;;23.40;80.50;;;;;;5033487;28;20183;-70
2022/08/28 02:03:08;;;;;;;4.53;4.13;;;23.40;80.50;;;;;;5033333;28;20183;-71
2022/08/28 02:05:35;;;;;;;4.47;4.18;;;23.40;80.50;;;;;;5034794;28;20190;-71
2022/08/28 02:08:03;;;;;;;4.75;4.43;;;23.40;80.60;;;;;;5017333;28;20195;-71
2022/08/28 02:10:34;;;;;;;4.82;4.43;;;23.40;80.70;;;;;;5033068;28;20242;-70
2022/08/28 02:13:01;;;;;;;4.47;4.15;;;23.40;80.60;;;;;;5031677;28;20183;-70
2022/08/28 02:15:30;;;;;;;4.68;4.28;;;23.40;80.60;;;;;;5016811;28;20206;-70
2022/08/28 02:17:56;;;;;;;4.32;3.95;;;23.40;80.70;;;;;;5034211;28;20199;-71
2022/08/28 02:20:23;;;;;;;4.65;4.25;;;23.40;80.60;;;;;;5033982;28;20203;-70
2022/08/28 02:22:49;;;;;;;4.93;4.53;;;23.40;80.60;;;;;;5034624;28;20274;-70
2022/08/28 02:25:15;;;;;;;4.68;4.32;;;23.40;80.60;;;;;;5033080;28;20706;-71
2022/08/28 02:27:43;;;;;;;4.63;4.25;;;23.40;80.60;;;;;;5033538;28;20183;-71
2022/08/28 02:30:13;;;;;;;4.20;3.90;;;23.40;80.60;;;;;;5032661;28;20226;-71
2022/08/28 02:32:39;;;;;;;4.60;4.28;;;23.40;80.70;;;;;;5033217;28;20187;-70
2022/08/28 02:35:08;;;;;;;4.07;3.78;;;23.40;80.70;;;;;;5032749;28;20191;-71
2022/08/28 02:37:34;;;;;;;4.22;3.92;;;23.40;80.90;;;;;;5034167;28;20214;-71
2022/08/28 02:40:01;;;;;;;4.38;4.00;;;23.40;80.80;;;;;;5031885;28;20222;-70
2022/08/28 02:42:28;;;;;;;4.35;4.05;;;23.40;80.70;;;;;;5034461;28;20229;-70
2022/08/28 02:44:53;;;;;;;4.38;4.07;;;23.40;80.80;;;;;;5034359;28;20690;-71
2022/08/28 02:47:19;;;;;;;4.15;3.85;;;23.40;80.80;;;;;;5029719;28;20221;-71
2022/08/28 02:49:45;;;;;;;5.15;4.57;;;23.40;80.90;;;;;;5015145;28;20211;-71
2022/08/28 02:52:11;;;;;;;4.78;4.38;;;23.40;80.80;;;;;;5032266;28;20193;-71
2022/08/28 02:54:38;;;;;;;4.90;4.50;;;23.40;80.80;;;;;;5033040;28;20541;-72
2022/08/28 02:57:07;;;;;;;4.50;4.10;;;23.40;80.80;;;;;;5016115;28;20292;-71
2022/08/28 02:59:35;;;;;;;4.22;3.83;;;23.40;80.90;;;;;;5032610;28;20222;-71
2022/08/28 03:02:03;;;;;;;4.90;4.50;;;23.40;80.80;;;;;;5033487;28;20171;-71
2022/08/28 03:04:33;;;;;;;4.38;4.07;;;23.40;80.80;;;;;;5032321;28;20223;-71
2022/08/28 03:06:59;;;;;;;4.13;3.83;;;23.40;80.60;;;;;;5032624;28;20184;-71
2022/08/28 03:09:25;;;;;;;4.55;4.18;;;23.40;80.70;;;;;;5032510;28;20319;-71
2022/08/28 03:11:52;;;;;;;3.88;3.58;;;23.40;80.80;;;;;;5031647;28;20191;-71
2022/08/28 03:14:22;;;;;;;4.35;4.05;;;23.40;80.80;;;;;;5032386;28;20194;-71
2022/08/28 03:16:49;;;;;;;4.35;4.00;;;23.40;80.80;;;;;;5032411;28;20191;-71
2022/08/28 03:19:15;;;;;;;4.53;4.22;;;23.40;80.80;;;;;;5033180;28;20208;-71
2022/08/28 03:21:41;;;;;;;4.20;3.90;;;23.40;80.80;;;;;;5031490;28;20187;-70
2022/08/28 03:24:07;;;;;;;3.97;3.67;;;23.40;80.80;;;;;;5032053;28;20345;-71
2022/08/28 03:26:33;;;;;;;4.32;3.95;;;23.40;80.90;;;;;;5031909;28;20188;-71
2022/08/28 03:28:59;;;;;;;4.75;4.35;;;23.40;80.90;;;;;;5032048;28;20210;-71
2022/08/28 03:31:28;;;;;;;4.03;3.72;;;23.40;81.70;;;;;;5031858;28;20183;-71
2022/08/28 03:33:54;;;;;;;4.88;4.47;;;23.40;80.90;;;;;;5031881;28;20187;-71
2022/08/28 03:36:24;;;;;;;4.32;4.03;;;23.40;80.80;;;;;;5032967;28;20183;-71
2022/08/28 03:38:53;;;;;;;4.50;4.20;;;23.40;80.80;;;;;;5033013;28;20203;-71
2022/08/28 03:41:23;;;;;;;4.53;4.20;;;23.40;80.70;;;;;;5031174;28;20187;-70
2022/08/28 03:43:50;;;;;;;4.25;3.95;;;23.40;80.60;;;;;;5015593;28;20298;-70
2022/08/28 03:46:22;;;;;;;4.55;4.20;;;23.40;80.70;;;;;;5031837;28;20207;-71
2022/08/28 03:48:49;;;;;;;3.92;3.63;;;23.40;80.70;;;;;;5031841;28;20300;-71
2022/08/28 03:51:26;;;;;;;4.70;3.95;;;23.40;80.60;;;;;;5030354;28;20279;-70
2022/08/28 03:53:52;;;;;;;4.13;3.83;;;23.40;80.50;;;;;;5032878;28;20175;-71
2022/08/28 03:56:23;;;;;;;3.85;3.55;;;23.40;80.50;;;;;;5031487;28;20670;-71
2022/08/28 03:58:53;;;;;;;4.18;3.85;;;23.40;80.50;;;;;;5032652;28;20697;-71
2022/08/28 04:01:20;;;;;;;4.10;3.80;;;23.40;81.40;;;;;;5031347;28;20179;-70
2022/08/28 04:03:46;;;;;;;4.00;3.70;;;23.40;80.50;;;;;;5031226;28;20277;-70
2022/08/28 04:06:13;;;;;;;4.03;3.72;;;23.40;80.60;;;;;;5031468;28;20194;-71
2022/08/28 04:08:39;;;;;;;4.07;3.75;;;23.40;80.50;;;;;;5031716;28;20199;-71
2022/08/28 04:11:05;;;;;;;3.92;3.63;;;23.40;80.60;;;;;;5030792;28;20187;-70
2022/08/28 04:13:32;;;;;;;4.00;3.70;;;23.40;80.60;;;;;;5031697;28;20179;-71
2022/08/28 04:16:09;;;;;;;3.88;3.67;;;23.40;80.50;;;;;;5032908;28;20182;-71
2022/08/28 04:18:38;;;;;;;3.95;3.70;;;23.40;80.50;;;;;;5027796;28;20683;-70
2022/08/28 04:21:11;;;;;;;3.95;3.65;;;23.40;80.70;;;;;;5039472;28;20178;-70
2022/08/28 04:23:42;;;;;;;4.20;3.90;;;23.40;80.60;;;;;;5032456;28;20199;-71
2022/08/28 04:26:10;;;;;;;4.25;3.88;;;23.40;80.60;;;;;;5031325;28;20183;-71
2022/08/28 04:28:36;;;;;;;4.20;3.80;;;23.40;80.50;;;;;;5032558;28;20206;-71
2022/08/28 04:31:03;;;;;;;4.40;4.10;;;23.30;80.60;;;;;;5014302;28;20179;-70
2022/08/28 04:33:30;;;;;;;4.38;3.97;;;23.40;80.60;;;;;;5032482;28;20183;-70
2022/08/28 04:35:56;;;;;;;4.00;3.70;;;23.40;80.60;;;;;;5031137;28;20187;-70
2022/08/28 04:38:22;;;;;;;3.95;3.63;;;23.40;80.50;;;;;;5031009;28;20265;-71
2022/08/28 04:40:48;;;;;;;4.30;3.80;;;23.30;80.60;;;;;;5030474;28;20203;-71
2022/08/28 04:43:14;;;;;;;4.10;3.80;;;23.40;80.70;;;;;;5030986;28;20270;-71
2022/08/28 04:45:42;;;;;;;4.60;4.22;;;23.40;80.70;;;;;;5032004;28;20218;-71
2022/08/28 04:48:11;;;;;;;3.95;3.65;;;23.40;80.70;;;;;;5032389;28;20178;-71
2022/08/28 04:50:45;;;;;;;4.28;3.88;;;23.40;80.60;;;;;;5030461;28;20183;-70
2022/08/28 04:53:14;;;;;;;4.43;4.10;;;23.40;80.80;;;;;;5032110;28;20187;-71
2022/08/28 04:55:49;;;;;;;5.55;3.97;;;23.30;80.70;;;;;;5030779;28;20183;-71
2022/08/28 04:58:18;;;;;;;4.07;3.78;;;23.40;80.80;;;;;;5031165;28;20638;-71
2022/08/28 05:00:48;;;;;;;4.22;3.92;;;23.40;80.70;;;;;;5030304;28;20212;-71
2022/08/28 05:03:16;;;;;;;4.43;4.10;;;23.30;80.60;;;;;;5015900;28;20187;-71
2022/08/28 05:05:49;;;;;;;4.32;4.03;;;23.40;80.70;;;;;;5034644;28;20194;-71
2022/08/28 05:08:18;;;;;;;4.72;4.32;;;23.30;80.70;;;;;;5018284;28;20175;-71
2022/08/28 05:10:45;;;;;;;3.80;3.45;;;23.40;80.70;;;;;;5034091;28;20195;-71
2022/08/28 05:13:14;;;;;;;4.20;3.90;;;23.30;80.70;;;;;;5035765;28;20171;-71
2022/08/28 05:15:47;;;;;;;4.55;4.05;;;23.40;80.80;;;;;;5027411;28;20231;-70
2022/08/28 05:18:16;;;;;;;3.58;3.38;;;23.40;80.80;;;;;;5030844;28;20200;-71
2022/08/28 05:20:45;;;;;;;4.20;3.90;;;23.40;80.90;;;;;;5017177;28;20188;-71
2022/08/28 05:23:13;;;;;;;4.40;4.00;;;23.30;80.70;;;;;;5034443;28;20188;-71
2022/08/28 05:25:44;;;;;;;4.35;4.05;;;23.30;80.80;;;;;;5035454;28;20203;-71
2022/08/28 05:28:11;;;;;;;4.07;3.78;;;23.30;80.90;;;;;;5017723;28;20255;-71
2022/08/28 05:30:40;;;;;;;3.90;3.60;;;23.30;80.90;;;;;;5034198;28;20198;-71
2022/08/28 05:33:08;;;;;;;4.25;3.85;;;23.40;81.00;;;;;;5034405;28;20729;-71
2022/08/28 05:35:41;;;;;;;4.20;3.90;;;23.30;80.90;;;;;;5034023;28;20192;-71
2022/08/28 05:38:08;;;;;;;4.65;4.28;;;23.40;81.10;;;;;;5035462;28;20270;-71
2022/08/28 05:40:44;;;;;;;4.30;4.00;;;23.30;81.00;;;;;;5033467;28;20191;-71
2022/08/28 05:43:14;;;;;;;4.53;4.15;;;23.30;81.00;;;;;;5034205;28;20278;-71
2022/08/28 05:45:40;;;;;;;4.22;3.85;;;23.30;81.00;;;;;;5035154;28;20690;-71
2022/08/28 05:48:06;;;;;;;4.00;3.70;;;23.30;80.90;;;;;;5034308;28;20657;-71
2022/08/28 05:50:32;;;;;;;4.68;4.38;;;23.30;80.90;;;;;;5033320;28;20302;-71
2022/08/28 05:52:58;;;;;;;4.50;4.13;;;23.30;81.00;;;;;;5033827;28;20274;-71
2022/08/28 05:55:24;;;;;;;3.95;3.65;;;23.30;81.10;;;;;;5033535;28;20183;-71
2022/08/28 05:57:49;;;;;;;4.30;4.00;;;23.30;81.00;;;;;;5033877;28;20188;-71
2022/08/28 06:00:17;;;;;;;4.15;3.85;;;23.30;81.10;;;;;;5017102;28;20215;-71
2022/08/28 06:02:43;;;;;;;4.13;3.83;;;23.30;81.10;;;;;;5033711;28;20650;-71
2022/08/28 06:05:09;;;;;;;4.13;3.83;;;23.40;81.10;;;;;;5034592;28;20202;-71
2022/08/28 06:07:35;;;;;;;4.00;3.70;;;23.30;81.10;;;;;;5033716;28;20663;-71
2022/08/28 06:10:01;;;;;;;4.32;3.95;;;23.30;81.20;;;;;;5050152;28;20256;-71
2022/08/28 06:12:27;;;;;;;4.32;3.95;;;23.30;81.10;;;;;;5032987;28;20187;-70
2022/08/28 06:14:53;;;;;;;4.15;3.85;;;23.40;81.20;;;;;;5033006;28;20183;-71
2022/08/28 06:17:18;;;;;;;3.90;3.60;;;23.40;81.30;;;;;;5033216;28;20574;-71
2022/08/28 06:19:44;;;;;;;3.83;3.63;;;23.40;81.20;;;;;;5032957;28;20214;-70
2022/08/28 06:22:13;;;;;;;4.35;4.05;;;23.30;81.10;;;;;;5033986;28;20179;-70
2022/08/28 06:24:40;;;;;;;3.85;3.55;;;23.30;81.10;;;;;;5033400;28;20215;-70
2022/08/28 06:27:05;;;;;;;4.35;4.05;;;23.30;81.10;;;;;;5033717;28;20194;-71
2022/08/28 06:29:32;;;;;;;4.22;3.92;;;23.30;81.10;;;;;;5033491;28;20199;-71
2022/08/28 06:32:01;;;;;;;4.07;3.78;;;23.30;81.10;;;;;;5032518;28;20187;-71
2022/08/28 06:34:27;;;;;;;4.22;3.83;;;23.40;81.20;;;;;;5049695;28;20192;-71
2022/08/28 06:36:54;;;;;;;4.40;4.10;;;23.40;81.20;;;;;;5016435;28;20195;-71
2022/08/28 06:39:21;;;;;;;4.43;4.03;;;23.40;81.10;;;;;;5034077;28;20211;-72
2022/08/28 06:41:47;;;;;;;3.90;3.58;;;23.40;81.10;;;;;;5032713;28;20206;-71
2022/08/28 06:44:18;;;;;;;3.90;3.60;;;23.40;81.00;;;;;;5033014;28;20234;-71
2022/08/28 06:46:48;;;;;;;3.97;3.60;;;23.40;80.90;;;;;;5049421;28;20245;-71
2022/08/28 06:49:14;;;;;;;3.88;3.58;;;23.40;80.90;;;;;;5026110;28;20207;-72
2022/08/28 06:51:40;;;;;;;4.03;3.75;;;23.40;81.00;;;;;;5032225;28;20742;-71
2022/08/28 06:54:07;;;;;;;4.65;4.25;;;23.40;80.90;;;;;;5032658;28;20191;-71
2022/08/28 06:56:33;;;;;;;3.85;3.55;;;23.40;81.00;;;;;;5033799;28;20183;-71
2022/08/28 06:58:59;;;;;;;4.25;3.95;;;23.40;81.00;;;;;;5016139;28;20698;-72
2022/08/28 07:01:29;;;;;;;3.88;3.58;;;23.40;81.00;;;;;;5033264;28;20241;-71
2022/08/28 07:04:01;;;;;;;4.05;3.75;;;23.40;81.10;;;;;;5032586;28;20222;-71
2022/08/28 07:06:34;;;;;;;3.90;3.60;;;23.40;80.90;;;;;;5032883;28;20167;-71
2022/08/28 07:09:00;;;;;;;3.97;3.67;;;23.40;81.10;;;;;;5033662;28;20261;-71
2022/08/28 07:11:30;;;;;;;3.78;3.47;;;23.40;81.00;;;;;;5015285;28;20274;-71
2022/08/28 07:13:57;;;;;;;4.00;3.70;;;23.40;80.90;;;;;;5033553;28;20238;-71
2022/08/28 07:16:32;;;;;;;4.13;3.83;;;23.40;81.10;;;;;;5032221;28;20183;-71
2022/08/28 07:18:58;;;;;;;3.75;3.45;;;23.40;81.10;;;;;;5031857;28;20352;-71
2022/08/28 07:21:25;;;;;;;4.00;3.70;;;23.40;81.10;;;;;;5032923;28;20186;-71
2022/08/28 07:23:52;;;;;;;3.90;3.60;;;23.40;81.00;;;;;;5033238;28;20218;-71
2022/08/28 07:26:22;;;;;;;4.30;4.00;;;23.40;81.20;;;;;;5015776;28;20655;-71
2022/08/28 07:28:50;;;;;;;4.00;3.67;;;23.40;81.20;;;;;;5032121;28;20206;-72
2022/08/28 07:31:21;;;;;;;3.97;3.67;;;23.40;81.30;;;;;;5031508;28;20243;-71
2022/08/28 07:33:48;;;;;;;3.83;3.63;;;23.40;81.40;;;;;;5033119;28;20213;-71
2022/08/28 07:36:23;;;;;;;4.05;3.75;;;23.40;81.40;;;;;;5032007;28;20180;-71
2022/08/28 07:38:49;;;;;;;4.53;4.13;;;23.40;81.60;;;;;;5032261;28;20264;-71
2022/08/28 07:41:25;;;;;;;4.53;4.15;;;23.40;81.30;;;;;;5032538;28;20167;-71
2022/08/28 07:46:37;;;;;;;4.20;3.90;;;23.40;81.30;;;;;;5031571;28;20214;-71
2022/08/28 07:49:05;;;;;;;4.15;3.85;;;23.40;81.10;;;;;;5031488;28;20230;-71
2022/08/28 07:51:32;;;;;;;4.35;3.95;;;23.40;81.00;;;;;;5032292;28;20191;-71
2022/08/28 07:53:57;;;;;;;4.10;3.40;;;23.40;81.10;;;;;;5032947;28;20190;-71
2022/08/28 07:56:28;;;;;;;4.40;4.10;;;23.40;81.10;;;;;;5032770;28;20175;-71
2022/08/28 07:58:56;;;;;;;4.20;3.90;;;23.40;81.10;;;;;;5031477;28;20570;-71
2022/08/28 08:01:22;;;;;;;4.38;3.97;;;23.40;81.00;;;;;;5031290;28;20183;-71
2022/08/28 08:03:48;;;;;;;4.40;4.00;;;23.50;81.10;;;;;;5031629;28;20219;-71
2022/08/28 08:06:15;;;;;;;4.13;3.80;;;23.40;81.00;;;;;;5032621;28;20186;-71
2022/08/28 08:08:41;;;;;;;4.55;4.15;;;23.40;81.10;;;;;;5031488;28;20211;-71
2022/08/28 08:11:12;;;;;;;4.55;4.07;;;23.40;81.10;;;;;;5030947;28;20206;-71
2022/08/28 08:13:39;;;;;;;4.70;4.30;;;23.50;81.00;;;;;;5031529;28;20175;-71
2022/08/28 08:16:12;;;;;;;4.38;3.97;;;23.40;80.90;;;;;;5031607;28;20229;-71
2022/08/28 08:18:42;;;;;;;4.85;4.35;;;23.40;81.40;;;;;;5032431;28;20207;-71
2022/08/28 08:21:12;;;;;;;4.68;4.28;;;23.40;81.10;;;;;;5030780;28;20266;-71
2022/08/28 08:23:39;;;;;;;4.93;4.50;;;23.50;81.10;;;;;;5031357;28;20202;-71
2022/08/28 08:26:12;;;;;;;4.25;3.95;;;23.50;81.20;;;;;;5030659;28;20179;-71
2022/08/28 08:28:40;;;;;;;4.35;4.03;;;23.50;81.20;;;;;;5031402;28;20225;-71
2022/08/28 08:31:09;;;;;;;4.28;3.97;;;23.50;81.10;;;;;;5030713;28;20179;-70
2022/08/28 08:33:38;;;;;;;4.93;4.53;;;23.50;80.90;;;;;;5031211;28;20171;-71
2022/08/28 08:36:05;;;;;;;4.85;4.43;;;23.50;80.80;;;;;;5031225;28;20205;-71
2022/08/28 08:38:33;;;;;;;5.28;4.38;;;23.50;80.70;;;;;;5031891;28;20302;-71
2022/08/28 08:41:01;;;;;;;5.13;4.72;;;23.50;80.70;;;;;;5031700;28;20222;-71
2022/08/28 08:43:46;;;;;;;4.43;4.10;;;23.60;80.90;;;;;;5030910;28;20666;-72
2022/08/28 08:46:12;;;;;;;4.57;4.18;;;23.60;80.80;;;;;;5030971;28;20210;-71
2022/08/28 08:48:41;;;;;;;4.25;3.90;;;23.60;80.90;;;;;;5030028;28;20230;-71
2022/08/28 08:51:25;;;;;;;4.82;4.43;;;23.50;81.60;;;;;;5014213;28;20179;-71
2022/08/28 08:54:12;;;;;;;5.10;4.60;;;23.50;81.20;;;;;;5014457;28;20627;-71
2022/08/28 08:56:42;;;;;;;4.97;4.57;;;23.50;81.50;;;;;;5032060;28;20195;-72
2022/08/28 08:59:19;;;;;;;4.78;4.38;;;23.50;81.20;;;;;;5032077;28;20237;-72
2022/08/28 09:02:10;;;;;;;4.55;4.15;;;23.50;81.10;;;;;;5031656;28;20221;-71
2022/08/28 09:04:40;;;;;;;5.32;4.82;;;23.50;81.10;;;;;;5030822;28;20211;-71
2022/08/28 09:07:25;;;;;;;4.97;4.57;;;23.60;81.00;;;;;;5031879;28;20180;-71
2022/08/28 09:09:54;;;;;;;5.05;4.55;;;23.60;81.10;;;;;;5031559;28;20261;-72
2022/08/28 09:12:28;;;;;;;6.03;4.60;;;23.60;81.10;;;;;;5030315;28;20187;-71
2022/08/28 09:15:13;;;;;;;5.13;4.72;;;23.60;81.40;;;;;;5031900;28;20313;-71
2022/08/28 09:17:48;;;;;;;5.78;4.25;;;23.60;81.20;;;;;;5030852;28;20197;-71
2022/08/28 09:20:23;;;;;;;4.90;4.45;;;23.60;81.00;;;;;;5014178;28;20206;-70
2022/08/28 09:22:49;;;;;;;4.97;4.57;;;23.50;80.80;;;;;;5028475;28;20187;-71
2022/08/28 09:25:43;;;;;;;5.63;5.07;;;23.60;80.80;;;;;;5027182;28;20212;-71
2022/08/28 09:28:14;;;;;;;4.85;4.38;;;23.60;80.70;;;;;;5027637;28;20188;-71
2022/08/28 09:30:42;;;;;;;5.35;4.60;;;23.60;80.70;;;;;;5010521;28;20211;-71
2022/08/28 09:33:08;;;;;;;4.97;4.57;;;23.60;80.70;;;;;;5027530;28;20185;-71
2022/08/28 09:35:36;;;;;;;5.10;4.70;;;23.60;80.60;;;;;;5027725;28;20271;-72
2022/08/28 09:38:24;;;;;;;4.93;4.32;;;23.60;80.60;;;;;;5030636;28;20188;-71
2022/08/28 09:43:54;;;;;;;5.00;4.50;;;23.50;80.60;;;;;;5030664;28;20222;-71
2022/08/28 09:46:30;;;;;;;5.55;5.05;;;23.60;80.70;;;;;;5031925;28;20187;-71
2022/08/28 09:49:13;;;;;;;5.60;4.30;;;23.60;80.70;;;;;;5029876;28;20298;-71
2022/08/28 09:51:39;;;;;;;5.47;4.97;;;23.60;80.70;;;;;;5033850;28;20193;-71
2022/08/28 09:54:20;;;;;;;4.60;4.20;;;23.60;80.70;;;;;;5035133;28;20188;-71
2022/08/28 09:56:47;;;;;;;5.10;4.70;;;23.60;80.70;;;;;;5033905;28;20218;-71
2022/08/28 09:59:24;;;;;;;4.72;4.35;;;23.60;80.80;;;;;;5034080;28;20203;-72
2022/08/28 10:02:27;;;;;;;5.00;4.60;;;23.60;80.90;;;;;;5032884;28;20195;-71
2022/08/28 10:05:15;;;;;;;4.55;4.22;;;23.60;80.90;;;;;;5033554;28;20206;-72
2022/08/28 10:07:54;;;;;;;5.10;4.60;;;23.60;81.50;;;;;;5030594;28;20195;-71
2022/08/28 10:10:46;;;;;;;5.53;4.70;;;23.60;80.80;;;;;;5017506;28;20230;-71
2022/08/28 10:13:31;;;;;;;5.50;4.90;;;23.60;80.70;;;;;;5033864;28;20172;-71
2022/08/28 10:16:27;;;;;;;5.07;4.65;;;23.60;80.60;;;;;;5035044;28;20182;-71
2022/08/28 10:19:28;;;;;;;4.90;4.43;;;23.60;80.30;;;;;;5034492;28;20223;-71
2022/08/28 10:22:17;;;;;;;5.28;4.88;;;23.60;80.20;;;;;;5016630;28;20222;-72
2022/08/28 10:25:15;;;;;;;6.00;4.63;;;23.60;80.60;;;;;;5033161;28;20278;-72
2022/08/28 10:28:13;;;;;;;5.53;4.82;;;23.60;80.50;;;;;;5034610;28;20531;-72
2022/08/28 10:30:53;;;;;;;4.38;4.07;;;23.60;80.50;;;;;;5033084;28;20187;-70
2022/08/28 10:34:19;;;;;;;5.43;4.93;;;23.60;80.30;;;;;;5033420;28;20198;-71
2022/08/28 10:37:02;;;;;;;4.63;4.22;;;23.60;81.00;;;;;;5033315;28;20575;-71
2022/08/28 10:39:52;;;;;;;5.07;4.68;;;23.60;80.30;;;;;;5032819;28;20203;-71
2022/08/28 10:42:44;;;;;;;4.80;4.40;;;23.60;80.40;;;;;;4996562;28;20184;-71
2022/08/28 10:45:17;;;;;;;5.47;4.88;;;23.60;80.30;;;;;;5013341;28;20703;-72
2022/08/28 10:47:56;;;;;;;5.03;4.63;;;23.60;80.40;;;;;;5013251;28;20298;-71
2022/08/28 10:50:28;;;;;;;4.80;4.40;;;23.70;80.40;;;;;;4996679;28;20219;-71
2022/08/28 10:53:15;;;;;;;4.57;4.22;;;23.60;80.30;;;;;;5031372;28;20191;-71
2022/08/28 10:56:22;;;;;;;5.13;4.63;;;23.60;80.20;;;;;;5033787;28;20247;-71
2022/08/28 10:58:55;;;;;;;4.88;4.47;;;23.60;79.90;;;;;;4995479;28;20246;-71
2022/08/28 11:01:34;;;;;;;5.05;4.55;;;23.70;79.60;;;;;;5028127;28;20210;-71
2022/08/28 11:04:07;;;;;;;4.75;4.45;;;23.70;79.70;;;;;;5032490;28;20211;-71
2022/08/28 11:06:38;;;;;;;5.03;4.47;;;23.70;79.50;;;;;;5032834;28;20171;-71
2022/08/28 11:09:24;;;;;;;5.88;4.55;;;23.60;80.00;;;;;;5033975;28;20195;-71
2022/08/28 11:11:55;;;;;;;4.70;4.30;;;23.70;79.90;;;;;;5015616;28;20215;-71
2022/08/28 11:14:38;;;;;;;4.88;4.40;;;23.70;79.80;;;;;;5015888;28;20195;-71
2022/08/28 11:17:38;;;;;;;4.97;4.57;;;23.70;79.90;;;;;;5031820;28;20270;-71
2022/08/28 11:20:27;;;;;;;4.93;4.53;;;23.70;80.60;;;;;;5032259;28;20222;-71
2022/08/28 11:23:14;;;;;;;4.55;4.25;;;23.70;79.80;;;;;;5033125;28;20207;-71
2022/08/28 11:25:53;;;;;;;4.32;4.03;;;23.70;79.70;;;;;;5032389;28;20264;-71
2022/08/28 11:28:26;;;;;;;5.13;4.72;;;23.70;79.70;;;;;;5032144;28;20179;-71
2022/08/28 11:30:57;;;;;;;4.60;4.20;;;23.70;79.70;;;;;;5030128;28;20196;-70
2022/08/28 11:33:51;;;;;;;6.30;4.78;;;23.70;79.60;;;;;;5033355;28;20273;-71
2022/08/28 11:36:22;;;;;;;4.97;4.38;;;23.70;79.60;;;;;;5033209;28;20631;-71
2022/08/28 11:38:51;;;;;;;4.88;4.30;;;23.70;79.70;;;;;;5032202;28;20297;-71
2022/08/28 11:41:28;;;;;;;5.22;4.72;;;23.70;79.80;;;;;;5031492;28;20179;-71
2022/08/28 11:44:12;;;;;;;4.53;4.13;;;23.60;79.80;;;;;;5015342;28;20458;-72
2022/08/28 11:46:43;;;;;;;4.53;4.20;;;23.60;79.80;;;;;;5031441;28;20187;-71
2022/08/28 11:49:28;;;;;;;5.00;4.60;;;23.70;79.90;;;;;;5048462;28;20226;-72
2022/08/28 11:52:33;;;;;;;4.63;4.15;;;23.70;80.10;;;;;;5031307;28;20187;-71
2022/08/28 11:55:55;;;;;;;4.97;4.53;;;23.60;80.00;;;;;;5031728;28;20185;-71
2022/08/28 11:58:55;;;;;;;4.13;3.83;;;23.60;79.90;;;;;;5032805;28;20175;-71
2022/08/28 12:01:36;;;;;;;4.72;4.32;;;23.70;80.30;;;;;;5030658;28;20191;-71
2022/08/28 12:04:11;;;;;;;4.78;4.38;;;23.70;80.00;;;;;;5023440;28;20694;-71
2022/08/28 12:07:12;;;;;;;4.35;4.05;;;23.70;79.90;;;;;;5014931;28;20175;-71
2022/08/28 12:09:49;;;;;;;4.88;4.53;;;23.70;80.80;;;;;;5014877;28;20203;-71
2022/08/28 12:12:20;;;;;;;4.80;4.38;;;23.70;79.80;;;;;;5030581;28;20179;-71
2022/08/28 12:14:46;;;;;;;4.75;4.25;;;23.70;79.80;;;;;;5031393;28;20198;-71
2022/08/28 12:17:16;;;;;;;5.05;4.65;;;23.70;79.70;;;;;;5032161;28;20191;-71
2022/08/28 12:20:07;;;;;;;4.80;4.30;;;23.70;79.70;;;;;;5031666;28;20210;-71
2022/08/28 12:22:54;;;;;;;4.65;4.25;;;23.70;79.80;;;;;;5032169;28;20563;-71
2022/08/28 12:25:42;;;;;;;4.50;4.10;;;23.70;79.50;;;;;;5031478;28;20203;-71
2022/08/28 12:28:24;;;;;;;4.65;4.35;;;23.70;79.60;;;;;;5031523;28;20187;-71
2022/08/28 12:34:53;;;;;;;4.70;4.40;;;23.70;79.90;;;;;;5041342;28;20234;-71
2022/08/28 12:37:30;;;;;;;4.57;4.18;;;23.70;79.60;;;;;;5030083;28;20210;-71
2022/08/28 12:40:18;;;;;;;4.25;3.95;;;23.70;79.80;;;;;;5014906;28;20219;-71
2022/08/28 12:43:10;;;;;;;4.53;4.22;;;23.70;79.70;;;;;;5030946;28;20187;-71
2022/08/28 12:45:52;;;;;;;4.60;4.20;;;23.70;79.70;;;;;;5032035;28;20195;-71
2022/08/28 12:48:46;;;;;;;8.15;4.50;;;23.70;79.40;;;;;;5032144;28;20187;-71
2022/08/28 12:51:19;;;;;;;4.43;4.13;;;23.70;79.30;;;;;;5030786;28;20183;-71
2022/08/28 12:53:58;;;;;;;4.82;4.43;;;23.70;79.30;;;;;;5031001;28;20222;-72
2022/08/28 12:56:32;;;;;;;4.45;4.15;;;23.70;79.30;;;;;;5030948;28;20175;-71
2022/08/28 12:59:37;;;;;;;4.93;4.45;;;23.80;79.40;;;;;;5030899;28;20207;-71
2022/08/28 13:02:34;;;;;;;4.75;4.35;;;23.70;79.40;;;;;;5031112;28;20608;-71
2022/08/28 13:05:07;;;;;;;4.82;4.43;;;23.80;79.30;;;;;;5030258;28;20230;-72
2022/08/28 13:07:39;;;;;;;4.85;4.38;;;23.70;79.00;;;;;;5030954;28;20175;-71
2022/08/28 13:10:50;;;;;;;4.45;4.15;;;23.70;79.00;;;;;;5030919;28;20222;-71
2022/08/28 13:13:27;;;;;;;3.83;3.58;;;23.70;78.90;;;;;;5032751;28;20195;-72
2022/08/28 13:16:01;;;;;;;4.95;4.55;;;23.70;79.00;;;;;;5030389;28;20237;-70
2022/08/28 13:18:50;;;;;;;4.32;3.92;;;23.70;79.10;;;;;;5030736;28;20195;-71
2022/08/28 13:21:16;;;;;;;4.43;4.03;;;23.70;79.00;;;;;;5014151;28;20190;-70
2022/08/28 13:23:43;;;;;;;4.40;4.00;;;23.70;78.90;;;;;;5031503;28;20191;-71
2022/08/28 13:26:11;;;;;;;4.80;4.40;;;23.80;79.10;;;;;;5034605;28;20185;-71
2022/08/28 13:28:42;;;;;;;4.03;3.72;;;23.80;79.30;;;;;;5035619;28;20206;-71